createdAt,value
2019-03-31T00:04:06.365Z,9.20
2019-03-31T00:09:01.026Z,8.70
2019-03-31T00:13:56.395Z,9.40
2019-03-31T00:18:50.982Z,8.60
2019-03-31T00:23:45.555Z,9.07
2019-03-31T00:28:40.247Z,10.33
2019-03-31T00:33:34.895Z,11.10
2019-03-31T00:38:29.498Z,10.47
2019-03-31T00:43:24.075Z,10.97
2019-03-31T00:48:18.673Z,10.70
2019-03-31T00:53:13.246Z,10.43
2019-03-31T00:58:07.856Z,9.67
2019-03-31T01:03:02.434Z,9.80
2019-03-31T01:07:57.263Z,9.50
2019-03-31T01:12:52.352Z,8.23
2019-03-31T01:17:47.619Z,10.20
2019-03-31T01:22:42.282Z,8.93
2019-03-31T01:27:37.582Z,9.83
2019-03-31T01:32:32.305Z,10.23
2019-03-31T01:37:27.614Z,9.63
2019-03-31T01:42:22.327Z,9.80
2019-03-31T01:47:16.991Z,10.60
2019-03-31T01:52:11.905Z,10.10
2019-03-31T01:57:06.752Z,10.87
2019-03-31T02:02:04.459Z,10.53
2019-03-31T02:06:57.948Z,9.17
2019-03-31T02:11:52.513Z,9.63
2019-03-31T02:16:47.124Z,9.77
2019-03-31T02:21:41.687Z,9.70
2019-03-31T02:26:36.306Z,9.63
2019-03-31T02:31:30.955Z,10.30
2019-03-31T02:36:25.855Z,10.30
2019-03-31T02:41:20.452Z,9.90
2019-03-31T02:46:15.584Z,9.03
2019-03-31T02:51:10.339Z,9.20
2019-03-31T02:56:06.302Z,10.10
2019-03-31T03:01:01.188Z,10.43
2019-03-31T03:05:59.542Z,10.43
2019-03-31T03:10:54.629Z,10.27
2019-03-31T03:16:08.903Z,11.07
2019-03-31T03:21:03.451Z,9.90
2019-03-31T03:25:58.470Z,9.90
2019-03-31T03:30:53.120Z,10.00
2019-03-31T03:35:47.927Z,11.17
2019-03-31T03:40:42.522Z,9.53
2019-03-31T03:45:37.308Z,9.60
2019-03-31T03:50:31.913Z,10.13
2019-03-31T03:55:26.556Z,10.47
2019-03-31T04:00:21.141Z,10.30
2019-03-31T04:05:15.742Z,11.10
2019-03-31T04:10:43.374Z,10.27
2019-03-31T04:15:38.029Z,9.77
2019-03-31T04:20:32.623Z,9.33
2019-03-31T04:25:27.197Z,9.67
2019-03-31T04:30:21.783Z,9.73
2019-03-31T04:35:16.381Z,10.57
2019-03-31T04:40:10.956Z,9.87
2019-03-31T04:45:07.280Z,9.53
2019-03-31T04:50:01.941Z,9.53
2019-03-31T04:54:56.519Z,10.47
2019-03-31T04:59:51.106Z,9.97
2019-03-31T05:04:45.685Z,9.77
2019-03-31T05:09:40.289Z,9.77
2019-03-31T05:14:34.879Z,10.90
2019-03-31T05:19:29.439Z,10.90
2019-03-31T05:24:24.035Z,9.63
2019-03-31T05:29:18.719Z,10.03
2019-03-31T05:34:19.208Z,10.03
2019-03-31T05:39:09.617Z,10.20
2019-03-31T05:44:05.999Z,10.07
2019-03-31T05:49:00.794Z,9.80
2019-03-31T05:53:55.366Z,10.33
2019-03-31T05:58:49.959Z,9.97
2019-03-31T06:03:44.528Z,9.90
2019-03-31T06:08:39.145Z,10.60
2019-03-31T06:13:33.833Z,10.57
2019-03-31T06:18:28.433Z,10.50
2019-03-31T06:23:23.015Z,11.30
2019-03-31T06:28:17.684Z,10.80
2019-03-31T06:33:12.273Z,10.93
2019-03-31T06:38:19.152Z,10.67
2019-03-31T06:43:13.742Z,10.83
2019-03-31T06:48:08.426Z,10.97
2019-03-31T06:53:03.011Z,11.00
2019-03-31T06:57:57.605Z,11.43
2019-03-31T07:02:52.188Z,11.43
2019-03-31T07:07:46.798Z,11.67
2019-03-31T07:12:41.377Z,11.27
2019-03-31T07:17:35.978Z,12.03
2019-03-31T07:22:30.567Z,11.93
2019-03-31T07:27:25.177Z,12.00
2019-03-31T07:32:19.767Z,12.73
2019-03-31T07:37:14.367Z,12.20
2019-03-31T07:42:10.125Z,12.80
2019-03-31T07:47:04.928Z,12.57
2019-03-31T07:51:59.510Z,12.50
2019-03-31T07:56:54.105Z,13.30
2019-03-31T08:01:48.689Z,13.90
2019-03-31T08:06:43.325Z,13.00
2019-03-31T08:11:37.906Z,12.37
2019-03-31T08:16:32.581Z,13.63
2019-03-31T08:21:27.166Z,13.07
2019-03-31T08:26:21.793Z,13.40
2019-03-31T08:31:16.370Z,13.30
2019-03-31T08:36:10.982Z,13.10
2019-03-31T08:41:05.628Z,13.73
2019-03-31T08:46:01.002Z,13.47
2019-03-31T08:50:55.583Z,14.30
2019-03-31T08:55:50.190Z,14.93
2019-03-31T09:00:49.088Z,15.33
2019-03-31T09:05:43.705Z,16.30
2019-03-31T09:10:38.287Z,16.57
2019-03-31T09:15:32.899Z,16.70
2019-03-31T09:20:27.486Z,16.40
2019-03-31T09:25:22.088Z,16.50
2019-03-31T09:30:18.381Z,15.90
2019-03-31T09:35:13.179Z,17.00
2019-03-31T09:40:10.389Z,15.07
2019-03-31T09:45:07.520Z,15.77
2019-03-31T09:50:02.105Z,16.93
2019-03-31T09:54:56.712Z,16.33
2019-03-31T09:59:51.296Z,15.27
2019-03-31T10:04:45.908Z,14.90
2019-03-31T10:09:40.963Z,15.13
2019-03-31T10:14:35.548Z,14.77
2019-03-31T10:19:30.170Z,16.07
2019-03-31T10:24:24.758Z,15.60
2019-03-31T10:29:19.411Z,16.23
2019-03-31T10:34:14.004Z,15.13
2019-03-31T10:39:09.695Z,16.13
2019-03-31T10:44:04.608Z,15.70
2019-03-31T10:48:59.189Z,15.53
2019-03-31T10:53:53.779Z,16.20
2019-03-31T10:58:48.370Z,15.40
2019-03-31T11:03:42.970Z,15.10
2019-03-31T11:08:37.564Z,15.80
2019-03-31T11:13:32.159Z,16.50
2019-03-31T11:18:26.745Z,15.87
2019-03-31T11:23:23.004Z,15.67
2019-03-31T11:28:17.674Z,16.27
2019-03-31T11:33:12.277Z,15.57
2019-03-31T11:38:06.858Z,16.37
2019-03-31T11:43:01.442Z,15.53
2019-03-31T11:47:56.041Z,16.40
2019-03-31T11:52:50.631Z,16.23
2019-03-31T11:57:46.049Z,16.23
2019-03-31T12:02:40.648Z,15.53
2019-03-31T12:07:46.061Z,14.77
2019-03-31T12:12:31.556Z,15.47
2019-03-31T12:17:26.131Z,15.23
2019-03-31T12:22:20.737Z,16.07
2019-03-31T12:27:15.331Z,15.70
2019-03-31T12:32:09.930Z,16.17
2019-03-31T12:37:04.575Z,13.67
2019-03-31T12:41:59.174Z,16.33
2019-03-31T12:46:56.152Z,15.97
2019-03-31T12:51:50.075Z,11.47
2019-03-31T12:56:44.662Z,11.47
2019-03-31T13:01:39.252Z,15.07
2019-03-31T13:06:33.824Z,15.00
2019-03-31T13:11:28.447Z,13.20
2019-03-31T13:16:23.004Z,12.70
2019-03-31T13:21:17.620Z,11.47
2019-03-31T13:26:12.198Z,10.30
2019-03-31T13:31:06.798Z,10.27
2019-03-31T13:36:01.377Z,10.70
2019-03-31T13:40:55.992Z,10.80
2019-03-31T13:45:50.564Z,9.63
2019-03-31T13:50:45.159Z,10.20
2019-03-31T13:55:39.729Z,10.30
2019-03-31T14:00:38.370Z,9.40
2019-03-31T14:05:33.046Z,8.03
2019-03-31T14:10:27.646Z,9.37
2019-03-31T14:15:22.233Z,8.73
2019-03-31T14:20:16.891Z,9.37
2019-03-31T14:25:11.605Z,8.17
2019-03-31T14:30:09.412Z,8.50
2019-03-31T14:35:04.941Z,8.60
2019-03-31T14:39:59.553Z,7.73
2019-03-31T14:44:54.217Z,7.33
2019-03-31T14:49:48.807Z,7.67
2019-03-31T14:54:43.385Z,8.20
2019-03-31T14:59:37.976Z,7.80
2019-03-31T15:04:32.540Z,8.03
2019-03-31T15:09:27.140Z,8.73
2019-03-31T15:14:21.725Z,7.93
2019-03-31T15:19:16.326Z,7.37
2019-03-31T15:24:10.904Z,7.07
2019-03-31T15:29:05.768Z,7.60
2019-03-31T15:34:00.408Z,7.67
2019-03-31T15:39:08.152Z,7.27
2019-03-31T15:43:51.342Z,6.50
2019-03-31T15:48:45.946Z,6.67
2019-03-31T15:53:40.536Z,7.20
2019-03-31T15:58:35.134Z,7.07
2019-03-31T16:03:29.751Z,6.97
2019-03-31T16:08:24.307Z,7.20
2019-03-31T16:13:19.068Z,6.17
2019-03-31T16:18:13.665Z,6.17
2019-03-31T16:23:08.244Z,5.90
2019-03-31T16:28:02.835Z,6.10
2019-03-31T16:32:57.413Z,5.67
2019-03-31T16:37:52.094Z,6.13
2019-03-31T16:42:46.693Z,5.70
2019-03-31T16:47:41.316Z,5.77
2019-03-31T16:52:35.918Z,6.17
2019-03-31T16:57:30.537Z,5.97
2019-03-31T17:02:25.110Z,5.37
2019-03-31T17:07:19.704Z,5.57
2019-03-31T17:12:14.355Z,5.70
2019-03-31T17:17:08.989Z,6.30
2019-03-31T17:22:03.571Z,6.30
2019-03-31T17:26:58.155Z,6.70
2019-03-31T17:31:52.727Z,6.13
2019-03-31T17:36:47.324Z,5.73
2019-03-31T17:41:41.906Z,6.10
2019-03-31T17:46:36.484Z,5.80
2019-03-31T17:51:31.065Z,6.10
2019-03-31T17:56:25.666Z,6.10
2019-03-31T18:01:20.247Z,5.83
2019-03-31T18:06:14.856Z,7.17
2019-03-31T18:11:09.439Z,7.10
2019-03-31T18:16:04.255Z,7.20
2019-03-31T18:21:00.131Z,7.57
2019-03-31T18:25:54.727Z,7.40
2019-03-31T18:30:49.303Z,7.30
2019-03-31T18:35:43.915Z,7.53
2019-03-31T18:40:39.239Z,8.27
2019-03-31T18:45:33.829Z,8.60
2019-03-31T18:50:28.416Z,8.43
2019-03-31T18:55:40.844Z,11.13
2019-03-31T19:00:37.077Z,11.83
2019-03-31T19:05:49.093Z,9.53
2019-03-31T19:10:58.428Z,9.93
2019-03-31T19:16:10.752Z,9.60
2019-03-31T19:21:11.455Z,9.63
2019-03-31T19:26:06.701Z,10.27
2019-03-31T19:31:18.791Z,10.37
2019-03-31T19:36:30.881Z,10.30
2019-03-31T19:41:39.142Z,10.70
2019-03-31T19:46:45.583Z,10.07
2019-03-31T19:51:58.036Z,10.30
2019-03-31T19:57:05.450Z,10.83
2019-03-31T20:02:19.776Z,10.63
2019-03-31T20:07:31.310Z,11.00
2019-03-31T20:12:30.191Z,11.73
2019-03-31T20:17:29.596Z,11.53
2019-03-31T20:22:34.331Z,10.80
2019-03-31T20:27:39.806Z,11.47
2019-03-31T20:32:52.051Z,10.97
2019-03-31T20:37:54.032Z,11.90
2019-03-31T20:42:48.408Z,12.43
2019-03-31T20:47:42.989Z,11.40
2019-03-31T20:52:37.606Z,11.70
2019-03-31T20:57:32.207Z,11.33
2019-03-31T21:02:26.786Z,11.70
2019-03-31T21:07:21.371Z,11.67
2019-03-31T21:12:15.966Z,10.97
2019-03-31T21:17:10.627Z,11.53
2019-03-31T21:22:05.324Z,11.37
2019-03-31T21:26:59.920Z,10.77
2019-03-31T21:31:55.477Z,11.17
2019-03-31T21:36:50.249Z,11.20
2019-03-31T21:41:44.856Z,11.50
2019-03-31T21:46:39.479Z,11.10
2019-03-31T21:51:34.071Z,11.13
2019-03-31T21:56:28.730Z,10.20
2019-03-31T22:01:23.481Z,11.90
2019-03-31T22:06:18.073Z,11.37
2019-03-31T22:11:13.236Z,10.07
2019-03-31T22:16:07.849Z,11.30
2019-03-31T22:21:02.973Z,10.57
2019-03-31T22:25:57.639Z,10.73
2019-03-31T22:30:52.230Z,10.80
2019-03-31T22:36:05.942Z,10.60
2019-03-31T22:41:00.536Z,11.27
2019-03-31T22:45:55.137Z,10.83
2019-03-31T22:50:49.714Z,10.40
2019-03-31T22:55:44.452Z,10.57
2019-03-31T23:00:39.033Z,10.97
2019-03-31T23:05:34.414Z,11.10
2019-03-31T23:10:28.991Z,11.63
2019-03-31T23:15:23.602Z,10.60
2019-03-31T23:20:18.189Z,10.57
2019-03-31T23:25:13.183Z,11.03
2019-03-31T23:30:10.743Z,11.40
2019-03-31T23:35:07.584Z,10.27
2019-03-31T23:40:02.557Z,11.00
2019-03-31T23:44:58.212Z,10.70
2019-03-31T23:49:52.805Z,10.33
2019-03-31T23:54:47.441Z,10.70
2019-03-31T23:59:42.018Z,11.43
